createdAt,value
2022-08-03T00:01:19.576Z,101266.94
2022-08-03T00:03:46.042Z,101259.91
2022-08-03T00:06:12.839Z,101265.56
2022-08-03T00:08:40.317Z,101263.66
2022-08-03T00:11:06.745Z,101261.97
2022-08-03T00:13:33.091Z,101262.81
2022-08-03T00:15:59.422Z,101262.81
2022-08-03T00:18:26.453Z,101252.88
2022-08-03T00:20:52.957Z,101251.16
2022-08-03T00:23:19.432Z,101250.28
2022-08-03T00:25:45.770Z,101253.03
2022-08-03T00:28:12.098Z,101250.28
2022-08-03T00:30:38.384Z,101249.44
2022-08-03T00:33:08.377Z,101243.94
2022-08-03T00:35:51.068Z,101238.63
2022-08-03T00:38:17.614Z,101242.41
2022-08-03T00:40:44.129Z,101238.09
2022-08-03T00:43:10.485Z,101237.41
2022-08-03T00:45:36.775Z,101239.44
2022-08-03T00:48:05.289Z,101231.53
2022-08-03T00:50:31.620Z,101232.59
2022-08-03T00:52:58.000Z,101232.03
2022-08-03T00:55:24.344Z,101230.47
2022-08-03T00:57:50.671Z,101225.16
2022-08-03T01:00:16.995Z,101223.59
2022-08-03T01:02:43.442Z,101225.47
2022-08-03T01:05:09.679Z,101224.63
2022-08-03T01:07:36.132Z,101227.22
2022-08-03T01:10:02.601Z,101226.16
2022-08-03T01:12:28.924Z,101226.16
2022-08-03T01:14:55.230Z,101230.63
2022-08-03T01:17:21.564Z,101227.03
2022-08-03T01:19:47.794Z,101224.13
2022-08-03T01:22:14.544Z,101219.66
2022-08-03T01:24:41.010Z,101215.19
2022-08-03T01:27:07.318Z,101215.19
2022-08-03T01:29:33.631Z,101219.66
2022-08-03T01:32:53.660Z,101217.66
2022-08-03T01:34:46.137Z,101215.91
2022-08-03T01:37:12.475Z,101210.44
2022-08-03T01:39:38.780Z,101206.84
2022-08-03T01:42:05.109Z,101213.19
2022-08-03T01:44:34.002Z,101214.03
2022-08-03T01:47:00.317Z,101204.09
2022-08-03T01:49:26.825Z,101206.84
2022-08-03T01:52:03.550Z,101201.38
2022-08-03T01:54:31.669Z,101202.22
2022-08-03T01:56:57.918Z,101194.84
2022-08-03T01:59:24.234Z,101195.72
2022-08-03T02:02:15.355Z,101194.84
2022-08-03T02:04:37.097Z,101198.28
2022-08-03T02:07:03.647Z,101207.53
2022-08-03T02:09:30.026Z,101213.69
2022-08-03T02:11:56.562Z,101207.38
2022-08-03T02:14:22.904Z,101208.22
2022-08-03T02:16:49.272Z,101206.19
2022-08-03T02:19:15.722Z,101205.19
2022-08-03T02:21:55.836Z,101199.69
2022-08-03T02:24:26.964Z,101197.78
2022-08-03T02:26:53.245Z,101199.53
2022-08-03T02:29:19.653Z,101194.03
2022-08-03T02:31:46.241Z,101198.31
2022-08-03T02:34:12.532Z,101198.31
2022-08-03T02:36:38.870Z,101202.78
2022-08-03T02:39:05.178Z,101199.34
2022-08-03T02:41:31.615Z,101207.59
2022-08-03T02:44:07.107Z,101200.22
2022-08-03T02:46:33.880Z,101199.19
2022-08-03T02:49:00.389Z,101201.94
2022-08-03T02:51:46.752Z,101204.50
2022-08-03T02:54:13.079Z,101200.75
2022-08-03T02:56:39.517Z,101204.34
2022-08-03T02:59:05.835Z,101206.06
2022-08-03T03:01:32.165Z,101205.91
2022-08-03T03:03:58.509Z,101203.31
2022-08-03T03:06:24.827Z,101207.75
2022-08-03T03:08:59.615Z,101207.59
2022-08-03T03:11:26.290Z,101206.75
2022-08-03T03:13:52.622Z,101214.81
2022-08-03T03:16:19.081Z,101210.03
2022-08-03T03:18:45.416Z,101214.66
2022-08-03T03:21:11.767Z,101214.66
2022-08-03T03:23:38.072Z,101213.97
2022-08-03T03:26:04.416Z,101204.72
2022-08-03T03:28:31.238Z,101211.22
2022-08-03T03:30:57.585Z,101214.97
2022-08-03T03:33:23.885Z,101208.09
2022-08-03T03:35:51.370Z,101209.28
2022-08-03T03:38:17.697Z,101205.69
2022-08-03T03:40:44.048Z,101209.28
2022-08-03T03:43:10.361Z,101213.06
2022-08-03T03:45:36.875Z,101209.78
2022-08-03T03:48:03.213Z,101207.53
2022-08-03T03:50:29.566Z,101205.97
2022-08-03T03:52:56.005Z,101204.41
2022-08-03T03:55:22.476Z,101208.19
2022-08-03T03:57:48.753Z,101208.19
2022-08-03T04:00:15.310Z,101206.63
2022-08-03T04:02:41.642Z,101209.69
2022-08-03T04:05:08.139Z,101209.88
2022-08-03T04:07:34.358Z,101208.13
2022-08-03T04:10:01.016Z,101206.41
2022-08-03T04:12:49.904Z,101207.44
2022-08-03T04:15:17.104Z,101203.84
2022-08-03T04:17:43.486Z,101211.19
2022-08-03T04:20:09.924Z,101208.63
2022-08-03T04:22:36.203Z,101208.78
2022-08-03T04:25:02.758Z,101206.91
2022-08-03T04:27:29.046Z,101208.47
2022-08-03T04:29:55.424Z,101215.66
2022-08-03T04:32:21.757Z,101214.63
2022-08-03T04:34:48.003Z,101212.94
2022-08-03T04:37:14.251Z,101218.41
2022-08-03T04:39:40.571Z,101220.97
2022-08-03T04:42:08.088Z,101219.94
2022-08-03T04:44:35.155Z,101223.56
2022-08-03T04:47:01.453Z,101224.97
2022-08-03T04:49:27.840Z,101233.03
2022-08-03T04:51:54.137Z,101225.66
2022-08-03T04:54:20.612Z,101223.44
2022-08-03T04:56:46.927Z,101226.72
2022-08-03T04:59:13.244Z,101232.88
2022-08-03T05:01:39.641Z,101226.22
2022-08-03T05:04:06.038Z,101230.53
2022-08-03T05:06:32.513Z,101226.59
2022-08-03T05:08:58.860Z,101232.44
2022-08-03T05:11:25.430Z,101229.53
2022-08-03T05:13:51.764Z,101228.19
2022-08-03T05:16:18.039Z,101226.66
2022-08-03T05:18:44.316Z,101228.06
2022-08-03T05:21:10.598Z,101231.19
2022-08-03T05:23:36.962Z,101233.44
2022-08-03T05:26:03.406Z,101233.94
2022-08-03T05:28:29.726Z,101228.84
2022-08-03T05:30:56.043Z,101234.72
2022-08-03T05:33:22.331Z,101236.97
2022-08-03T05:36:01.063Z,101235.63
2022-08-03T05:38:34.136Z,101236.81
2022-08-03T05:41:20.990Z,101239.91
2022-08-03T05:43:47.950Z,101241.13
2022-08-03T05:46:14.399Z,101242.19
2022-08-03T05:48:40.785Z,101249.72
2022-08-03T05:51:07.122Z,101251.81
2022-08-03T05:53:33.508Z,101252.16
2022-08-03T05:56:03.605Z,101242.22
2022-08-03T05:58:41.987Z,101245.16
2022-08-03T06:01:08.447Z,101249.97
2022-08-03T06:03:34.880Z,101245.66
2022-08-03T06:06:01.333Z,101243.13
2022-08-03T06:08:27.638Z,101252.75
2022-08-03T06:10:53.947Z,101245.53
2022-08-03T06:13:20.584Z,101240.53
2022-08-03T06:15:47.149Z,101247.03
2022-08-03T06:18:13.615Z,101249.41
2022-08-03T06:20:40.056Z,101247.50
2022-08-03T06:23:06.340Z,101249.19
2022-08-03T06:25:33.783Z,101245.75
2022-08-03T06:28:00.242Z,101250.53
2022-08-03T06:30:26.621Z,101246.22
2022-08-03T06:32:52.974Z,101244.66
2022-08-03T06:35:19.239Z,101245.09
2022-08-03T06:37:45.545Z,101249.19
2022-08-03T06:40:13.902Z,101250.66
2022-08-03T06:42:40.402Z,101249.41
2022-08-03T06:45:06.707Z,101254.53
2022-08-03T06:47:32.968Z,101250.59
2022-08-03T06:50:12.989Z,101251.81
2022-08-03T06:52:43.771Z,101252.53
2022-08-03T06:55:10.550Z,101251.59
2022-08-03T06:57:37.198Z,101249.97
2022-08-03T07:00:09.554Z,101242.03
2022-08-03T07:02:38.048Z,101253.28
2022-08-03T07:05:05.409Z,101247.28
2022-08-03T07:07:31.716Z,101242.56
2022-08-03T07:09:58.459Z,101248.44
2022-08-03T07:12:25.527Z,101251.31
2022-08-03T07:14:53.110Z,101252.59
2022-08-03T07:17:20.910Z,101245.00
2022-08-03T07:19:47.260Z,101254.13
2022-08-03T07:22:13.548Z,101245.78
2022-08-03T07:24:40.173Z,101249.47
2022-08-03T07:27:06.488Z,101250.41
2022-08-03T07:29:34.731Z,101249.91
2022-08-03T07:32:01.094Z,101244.63
2022-08-03T07:34:27.392Z,101240.00
2022-08-03T07:36:53.724Z,101243.59
2022-08-03T07:39:20.054Z,101244.28
2022-08-03T07:41:46.478Z,101242.81
2022-08-03T07:44:12.837Z,101246.88
2022-08-03T07:46:39.072Z,101248.00
2022-08-03T07:49:05.477Z,101249.41
2022-08-03T07:51:31.841Z,101241.03
2022-08-03T07:53:58.271Z,101244.72
2022-08-03T07:56:24.629Z,101244.09
2022-08-03T07:58:50.975Z,101242.66
2022-08-03T08:01:17.490Z,101245.25
2022-08-03T08:03:53.210Z,101248.38
2022-08-03T08:06:19.898Z,101246.84
2022-08-03T08:08:46.411Z,101239.09
2022-08-03T08:11:12.764Z,101247.72
2022-08-03T08:13:39.278Z,101245.47
2022-08-03T08:16:05.647Z,101248.91
2022-08-03T08:18:32.029Z,101251.88
2022-08-03T08:20:58.350Z,101247.63
2022-08-03T08:23:42.182Z,101243.34
2022-08-03T08:26:10.054Z,101242.59
2022-08-03T08:28:36.334Z,101242.19
2022-08-03T08:31:02.653Z,101242.69
2022-08-03T08:33:42.190Z,101241.69
2022-08-03T08:36:15.780Z,101245.72
2022-08-03T08:38:42.133Z,101248.91
2022-08-03T08:41:08.441Z,101252.53
2022-08-03T08:43:34.782Z,101248.91
2022-08-03T08:46:01.082Z,101241.69
2022-08-03T08:48:27.336Z,101250.66
2022-08-03T08:50:53.674Z,101243.81
2022-08-03T08:53:26.757Z,101248.13
2022-08-03T08:55:58.642Z,101247.47
2022-08-03T08:58:26.159Z,101250.03
2022-08-03T09:00:52.750Z,101251.34
2022-08-03T09:03:22.664Z,101246.22
2022-08-03T09:05:56.947Z,101247.69
2022-08-03T09:08:23.253Z,101244.69
2022-08-03T09:10:49.514Z,101241.78
2022-08-03T09:13:15.845Z,101243.91
2022-08-03T09:15:42.131Z,101237.09
2022-08-03T09:18:26.146Z,101230.22
2022-08-03T09:20:56.817Z,101231.50
2022-08-03T09:23:51.703Z,101232.16
2022-08-03T09:26:09.481Z,101223.19
2022-08-03T09:29:00.737Z,101222.09
2022-08-03T09:31:21.919Z,101218.47
2022-08-03T09:33:48.370Z,101224.69
2022-08-03T09:36:14.911Z,101224.03
2022-08-03T09:38:41.267Z,101210.16
2022-08-03T09:41:07.711Z,101219.31
2022-08-03T09:43:34.033Z,101217.16
2022-08-03T09:46:00.287Z,101222.88
2022-08-03T09:48:26.609Z,101215.41
2022-08-03T09:50:58.822Z,101216.06
2022-08-03T09:53:38.910Z,101217.94
2022-08-03T09:56:35.605Z,101218.97
2022-08-03T09:59:02.901Z,101211.03
2022-08-03T10:01:29.211Z,101207.97
2022-08-03T10:04:04.011Z,101221.16
2022-08-03T10:06:30.810Z,101208.75
2022-08-03T10:08:57.083Z,101206.81
2022-08-03T10:11:23.395Z,101199.59
2022-08-03T10:13:49.773Z,101191.88
2022-08-03T10:16:22.183Z,101199.44
2022-08-03T10:18:51.412Z,101197.03
2022-08-03T10:21:17.656Z,101184.97
2022-08-03T10:23:44.109Z,101192.03
2022-08-03T10:26:10.380Z,101190.66
2022-08-03T10:28:40.238Z,101187.81
2022-08-03T10:31:09.233Z,101193.59
2022-08-03T10:33:49.472Z,101187.41
2022-08-03T10:36:18.541Z,101180.06
2022-08-03T10:38:44.795Z,101177.72
2022-08-03T10:41:11.010Z,101173.91
2022-08-03T10:43:37.312Z,101173.44
2022-08-03T10:46:03.565Z,101177.75
2022-08-03T10:48:29.829Z,101175.75
2022-08-03T10:50:56.056Z,101172.97
2022-08-03T10:53:22.312Z,101171.78
2022-08-03T10:55:48.550Z,101168.97
2022-08-03T10:58:14.986Z,101172.19
2022-08-03T11:00:57.025Z,101166.22
2022-08-03T11:03:23.380Z,101171.19
2022-08-03T11:05:49.664Z,101160.34
2022-08-03T11:08:15.957Z,101152.47
2022-08-03T11:10:42.213Z,101159.03
2022-08-03T11:13:08.434Z,101157.63
2022-08-03T11:15:34.694Z,101155.72
2022-08-03T11:18:00.965Z,101154.34
2022-08-03T11:20:27.715Z,101151.22
2022-08-03T11:22:53.944Z,101147.22
2022-08-03T11:25:54.249Z,101150.91
2022-08-03T11:28:06.465Z,101156.72
2022-08-03T11:30:33.057Z,101157.31
2022-08-03T11:32:59.334Z,101155.31
2022-08-03T11:35:25.580Z,101146.75
2022-08-03T11:38:03.083Z,101149.09
2022-08-03T11:40:31.662Z,101144.13
2022-08-03T11:42:57.910Z,101146.47
2022-08-03T11:45:24.185Z,101145.06
2022-08-03T11:47:51.471Z,101143.28
2022-08-03T11:50:17.911Z,101149.06
2022-08-03T11:52:44.152Z,101137.78
2022-08-03T11:55:10.390Z,101139.72
2022-08-03T11:59:01.746Z,101133.59
2022-08-03T12:00:22.918Z,101138.22
2022-08-03T12:02:49.200Z,101139.34
2022-08-03T12:05:15.550Z,101140.47
2022-08-03T12:08:03.032Z,101136.13
2022-08-03T12:10:28.255Z,101135.78
2022-08-03T12:12:55.161Z,101122.59
2022-08-03T12:15:21.410Z,101131.19
2022-08-03T12:17:47.685Z,101135.00
2022-08-03T12:20:13.935Z,101129.44
2022-08-03T12:22:40.178Z,101124.34
2022-08-03T12:25:06.423Z,101127.84
2022-08-03T12:27:32.628Z,101121.56
2022-08-03T12:29:59.255Z,101112.34
2022-08-03T12:32:25.638Z,101111.72
2022-08-03T12:34:51.905Z,101114.88
2022-08-03T12:37:22.518Z,101106.88
2022-08-03T12:40:01.722Z,101104.31
2022-08-03T12:42:31.836Z,101099.25
2022-08-03T12:44:58.155Z,101094.47
2022-08-03T12:47:24.452Z,101101.72
2022-08-03T12:49:50.881Z,101105.84
2022-08-03T12:52:17.216Z,101098.41
2022-08-03T12:54:43.548Z,101099.13
2022-08-03T12:57:09.924Z,101100.69
2022-08-03T12:59:40.421Z,101099.03
2022-08-03T13:02:09.370Z,101090.78
2022-08-03T13:04:36.378Z,101095.09
2022-08-03T13:07:03.404Z,101095.63
2022-08-03T13:09:29.904Z,101083.31
2022-08-03T13:12:02.211Z,101090.41
2022-08-03T13:14:28.955Z,101080.25
2022-08-03T13:16:55.348Z,101083.75
2022-08-03T13:19:21.715Z,101088.28
2022-08-03T13:22:01.303Z,101083.75
2022-08-03T13:24:31.664Z,101088.25
2022-08-03T13:26:58.269Z,101084.97
2022-08-03T13:29:24.903Z,101088.72
2022-08-03T13:31:51.408Z,101089.84
2022-08-03T13:34:22.281Z,101092.25
2022-08-03T13:39:57.933Z,101080.47
2022-08-03T13:42:22.414Z,101075.53
2022-08-03T13:44:48.973Z,101079.06
2022-08-03T13:47:15.255Z,101070.84
2022-08-03T13:49:41.494Z,101074.00
2022-08-03T13:52:07.724Z,101075.44
2022-08-03T13:54:33.959Z,101072.63
2022-08-03T13:58:05.097Z,101069.69
2022-08-03T13:59:46.429Z,101066.34
2022-08-03T14:02:12.722Z,101061.78
2022-08-03T14:04:39.014Z,101061.53
2022-08-03T14:07:05.241Z,101066.28
2022-08-03T14:09:31.538Z,101066.72
2022-08-03T14:12:06.833Z,101052.31
2022-08-03T14:14:34.779Z,101052.69
2022-08-03T14:17:01.178Z,101043.34
2022-08-03T14:19:28.749Z,101046.28
2022-08-03T14:22:01.789Z,101044.72
2022-08-03T14:24:33.219Z,101045.31
2022-08-03T14:27:07.163Z,101039.38
2022-08-03T14:29:35.378Z,101042.16
2022-08-03T14:32:11.994Z,101033.06
2022-08-03T14:34:39.132Z,101033.34
2022-08-03T14:37:05.400Z,101040.06
2022-08-03T14:39:59.854Z,101038.06
2022-08-03T14:42:18.108Z,101031.56
2022-08-03T14:44:44.366Z,101039.41
2022-08-03T14:47:10.612Z,101028.22
2022-08-03T14:50:30.779Z,101031.13
2022-08-03T14:52:23.177Z,101038.25
2022-08-03T14:54:49.441Z,101026.72
2022-08-03T14:57:15.677Z,101026.91
2022-08-03T14:59:55.936Z,101031.41
2022-08-03T15:02:24.078Z,101023.34
2022-08-03T15:04:50.833Z,101031.50
2022-08-03T15:07:17.202Z,101021.34
2022-08-03T15:09:43.521Z,101025.91
2022-08-03T15:12:09.753Z,101023.69
2022-08-03T15:14:36.007Z,101010.78
2022-08-03T15:17:04.194Z,101014.41
2022-08-03T15:20:00.929Z,101017.19
2022-08-03T15:22:16.625Z,101001.78
2022-08-03T15:24:46.887Z,101013.59
2022-08-03T15:27:13.084Z,101001.47
2022-08-03T15:30:04.916Z,101001.41
2022-08-03T15:32:25.568Z,101003.38
2022-08-03T15:34:52.647Z,101001.41
2022-08-03T15:37:18.878Z,100999.47
2022-08-03T15:39:59.125Z,101000.06
2022-08-03T15:42:26.477Z,101000.94
2022-08-03T15:44:53.755Z,100997.81
2022-08-03T15:47:20.954Z,100993.00
2022-08-03T15:49:47.507Z,100996.69
2022-08-03T15:52:13.753Z,100991.94
2022-08-03T15:54:40.189Z,100995.56
2022-08-03T15:57:06.548Z,100994.13
2022-08-03T15:59:32.824Z,100991.59
2022-08-03T16:01:59.108Z,100992.72
2022-08-03T16:04:25.378Z,100990.50
2022-08-03T16:06:51.629Z,100979.81
2022-08-03T16:09:23.775Z,100982.88
2022-08-03T16:12:04.073Z,100983.91
2022-08-03T16:14:34.719Z,100981.00
2022-08-03T16:17:06.842Z,100989.53
2022-08-03T16:19:33.472Z,100980.47
2022-08-03T16:21:59.950Z,100982.75
2022-08-03T16:24:28.058Z,100970.53
2022-08-03T16:26:54.530Z,100972.91
2022-08-03T16:29:22.688Z,100970.16
2022-08-03T16:31:51.326Z,100973.50
2022-08-03T16:34:17.850Z,100976.34
2022-08-03T16:36:45.362Z,100977.28
2022-08-03T16:39:11.684Z,100974.75
2022-08-03T16:41:53.622Z,100973.91
2022-08-03T16:44:24.228Z,100981.81
2022-08-03T16:46:53.373Z,100974.78
2022-08-03T16:49:54.781Z,100975.63
2022-08-03T16:52:07.121Z,100975.31
2022-08-03T16:54:33.544Z,100974.47
2022-08-03T16:57:01.083Z,100975.88
2022-08-03T16:59:36.357Z,100966.59
2022-08-03T17:02:06.688Z,100973.09
2022-08-03T17:04:36.297Z,100975.06
2022-08-03T17:07:06.762Z,100976.47
2022-08-03T17:09:38.717Z,100976.47
2022-08-03T17:12:05.277Z,100977.59
2022-08-03T17:14:33.470Z,100973.06
2022-08-03T17:16:59.736Z,100966.63
2022-08-03T17:19:27.792Z,100973.38
2022-08-03T17:21:55.456Z,100975.91
2022-08-03T17:24:21.772Z,100972.50
2022-08-03T17:26:51.739Z,100974.19
2022-08-03T17:29:18.325Z,100978.69
2022-08-03T17:31:44.613Z,100977.22
2022-08-03T17:34:15.797Z,100977.94
2022-08-03T17:37:03.412Z,100983.03
2022-08-03T17:39:55.815Z,100980.69
2022-08-03T17:42:30.405Z,100981.28
2022-08-03T17:44:57.884Z,100977.81
2022-08-03T17:47:40.976Z,100983.53
2022-08-03T17:50:24.855Z,100983.63
2022-08-03T17:52:52.271Z,100985.84
2022-08-03T17:55:55.979Z,100986.41
2022-08-03T17:58:07.357Z,100985.31
2022-08-03T18:00:33.630Z,100987.81
2022-08-03T18:03:00.865Z,100985.47
2022-08-03T18:06:11.860Z,100988.25
2022-08-03T18:08:15.736Z,100990.94
2022-08-03T18:10:49.781Z,100987.41
2022-08-03T18:13:16.397Z,100992.28
2022-08-03T18:15:42.645Z,100993.25
2022-08-03T18:18:10.851Z,100993.03
2022-08-03T18:20:41.739Z,100982.38
2022-08-03T18:23:08.735Z,100990.41
2022-08-03T18:25:45.227Z,100990.59
2022-08-03T18:28:23.962Z,100990.00
2022-08-03T18:30:53.936Z,100990.50
2022-08-03T18:34:19.087Z,100993.63
2022-08-03T18:36:07.533Z,100989.09
2022-08-03T18:38:35.426Z,100988.28
2022-08-03T18:41:01.826Z,100993.91
2022-08-03T18:43:47.567Z,100990.03
2022-08-03T18:46:14.326Z,100996.47
2022-08-03T18:48:40.577Z,100991.78
2022-08-03T18:51:12.352Z,100991.53
2022-08-03T18:54:04.075Z,100998.19
2022-08-03T18:56:32.623Z,100992.88
2022-08-03T18:59:02.245Z,101008.72
2022-08-03T19:01:58.350Z,100999.28
2022-08-03T19:04:15.255Z,100992.25
2022-08-03T19:06:43.262Z,100995.59
2022-08-03T19:09:10.389Z,100996.16
2022-08-03T19:12:11.001Z,101003.78
2022-08-03T19:14:22.889Z,100998.53
2022-08-03T19:16:55.084Z,101004.22
2022-08-03T19:19:21.299Z,101004.53
2022-08-03T19:21:49.231Z,101014.66
2022-08-03T19:24:15.749Z,101009.25
2022-08-03T19:26:42.102Z,101002.91
2022-08-03T19:29:11.372Z,101007.97
2022-08-03T19:31:41.695Z,101007.41
2022-08-03T19:34:25.564Z,101009.41
2022-08-03T19:36:51.863Z,101004.59
2022-08-03T19:39:18.194Z,101005.09
2022-08-03T19:41:44.941Z,101006.06
2022-08-03T19:44:19.803Z,101010.41
2022-08-03T19:46:46.571Z,101005.34
2022-08-03T19:49:15.006Z,101013.34
2022-08-03T19:52:02.966Z,101005.72
2022-08-03T19:54:32.320Z,101008.31
2022-08-03T19:56:58.691Z,100998.94
2022-08-03T19:59:26.421Z,101006.69
2022-08-03T20:01:53.068Z,101002.44
2022-08-03T20:04:21.272Z,101000.16
2022-08-03T20:06:47.718Z,101007.00
2022-08-03T20:09:16.366Z,101004.06
2022-08-03T20:11:44.954Z,101005.56
2022-08-03T20:14:11.611Z,101004.31
2022-08-03T20:16:39.607Z,101005.19
2022-08-03T20:19:14.369Z,101001.59
2022-08-03T20:21:40.722Z,101000.53
2022-08-03T20:24:23.311Z,100998.19
2022-08-03T20:26:51.790Z,100984.31
2022-08-03T20:29:19.651Z,100994.97
2022-08-03T20:32:05.913Z,100996.72
2022-08-03T20:34:32.714Z,100994.59
2022-08-03T20:36:58.918Z,100998.00
2022-08-03T20:39:26.261Z,100999.72
2022-08-03T20:41:53.718Z,100991.22
2022-08-03T20:44:25.715Z,101000.38
2022-08-03T20:47:00.306Z,100991.44
2022-08-03T20:49:27.079Z,100998.91
2022-08-03T20:51:53.697Z,100994.25
2022-08-03T20:54:29.705Z,100995.72
2022-08-03T20:56:57.588Z,100999.13
2022-08-03T20:59:24.238Z,101006.38
2022-08-03T21:01:50.476Z,100998.88
2022-08-03T21:04:20.865Z,100999.31
2022-08-03T21:06:53.165Z,101005.28
2022-08-03T21:09:19.883Z,101010.38
2022-08-03T21:11:46.440Z,101011.88
2022-08-03T21:14:12.757Z,101008.88
2022-08-03T21:16:38.982Z,101009.75
2022-08-03T21:19:05.249Z,101009.50
2022-08-03T21:21:31.504Z,101006.31
2022-08-03T21:23:57.752Z,101001.41
2022-08-03T21:26:24.002Z,101011.19
2022-08-03T21:28:50.257Z,101009.06
2022-08-03T21:31:24.206Z,101010.31
2022-08-03T21:33:52.065Z,101011.16
2022-08-03T21:36:18.321Z,101014.34
2022-08-03T21:38:44.541Z,101013.06
2022-08-03T21:41:22.015Z,101015.16
2022-08-03T21:43:48.243Z,101006.19
2022-08-03T21:46:14.501Z,101008.97
2022-08-03T21:48:40.727Z,101011.47
2022-08-03T21:51:07.064Z,101011.91
2022-08-03T21:54:02.962Z,101008.88
2022-08-03T21:56:19.555Z,101011.03
2022-08-03T21:58:45.919Z,101007.81
2022-08-03T22:01:17.420Z,101013.97
2022-08-03T22:03:53.185Z,101006.28
2022-08-03T22:06:20.651Z,101005.00
2022-08-03T22:08:48.726Z,101003.69
2022-08-03T22:11:14.989Z,101006.03
2022-08-03T22:13:42.989Z,101014.91
2022-08-03T22:16:10.776Z,101007.44
2022-08-03T22:18:37.015Z,101008.06
2022-08-03T22:21:03.288Z,101008.69
2022-08-03T22:23:29.883Z,101012.88
2022-08-03T22:25:56.125Z,101015.59
2022-08-03T22:28:22.342Z,101013.63
2022-08-03T22:30:48.793Z,101013.38
2022-08-03T22:33:15.015Z,101011.88
2022-08-03T22:35:47.416Z,101011.22
2022-08-03T22:38:14.332Z,101019.06
2022-08-03T22:40:40.564Z,101020.91
2022-08-03T22:43:06.789Z,101017.91
2022-08-03T22:46:06.424Z,101017.66
2022-08-03T22:48:19.229Z,101026.75
2022-08-03T22:50:45.475Z,101019.91
2022-08-03T22:53:11.762Z,101026.47
2022-08-03T22:55:38.021Z,101021.34
2022-08-03T22:58:04.254Z,101021.75
2022-08-03T23:00:30.537Z,101024.06
2022-08-03T23:02:56.808Z,101023.41
2022-08-03T23:06:02.460Z,101016.38
2022-08-03T23:08:09.324Z,101026.72
2022-08-03T23:10:35.552Z,101023.31
2022-08-03T23:13:01.765Z,101020.28
2022-08-03T23:15:28.011Z,101012.63
2022-08-03T23:17:58.166Z,101019.38
2022-08-03T23:20:26.609Z,101018.91
2022-08-03T23:22:53.159Z,101015.91
2022-08-03T23:25:19.894Z,101020.09
2022-08-03T23:27:46.111Z,101025.34
2022-08-03T23:30:12.340Z,101012.13
2022-08-03T23:32:38.557Z,101019.09
2022-08-03T23:35:04.800Z,101017.75
2022-08-03T23:37:31.045Z,101019.88
2022-08-03T23:39:57.305Z,101017.50
2022-08-03T23:42:23.546Z,101017.03
2022-08-03T23:44:49.795Z,101014.66
2022-08-03T23:47:15.999Z,101017.63
2022-08-03T23:49:42.245Z,101013.34
2022-08-03T23:52:08.463Z,101016.28
2022-08-03T23:54:34.700Z,101010.97
2022-08-03T23:57:00.919Z,101018.81
2022-08-03T23:59:27.173Z,101019.56
